• Join FlightAware (Why Join?)
  • Login
  • US Flag GB Flag 
05:12 EDT


 

Airport Tracker/Info


-or-


 

Live Flight TrackerFlight Track Log ✈ CTL13 ✈ 16-Apr-2013 ✈ KEYE - KMDW

Flight Track Log - Related Links

Times and Time Zones

All times are in EDT time to prevent confusion due to time zone crossing. See the CTL13 flight status page for this flight to view local times or setup timezone preferences in your user account.

Time Position Orientation Groundspeed Altitude Reporting Facility
EDT Latitude Longitude Course Direction KTS MPH feet Rate Location/Type
20:38 39.9000 -86.2833 North 145 167 2,200  Level Indianapolis TRACON
20:39 39.9500 -86.2833 360° North 153 176 2,700 480 Climbing Indianapolis TRACON
20:40 39.9833 -86.3000 339° North 158 182 3,200 180 Climbing Indianapolis TRACON
20:42 40.0643 -86.3288 345° North  Level FlightAware Approximate
20:45 40.2375 -86.3689 350° North 164 189 3,900  Level Chicago Center
20:46 40.2828 -86.3825 347° North 161 185 4,000  Climbing Chicago Center
20:47 40.3242 -86.3931 349° North 158 182 4,000 -60 Level Chicago Center
20:48 40.3717 -86.4067 348° North 161 185 3,900 -60 Descending Chicago Center
20:49 40.3606 -86.4193 349° North  Level FlightAware Approximate
20:49 40.4131 -86.4175 349° North 163 188 3,900  Level Chicago Center
20:50 40.4033 -86.4300 349° North  Level FlightAware Approximate
20:50 40.4481 -86.4253 350° North 193 222 3,900  Level Chicago Center
20:51 40.4460 -86.4402 350° North  Level FlightAware Approximate
20:51 40.4992 -86.4469 342° North 179 206 3,900  Level Chicago Center
20:52 40.4586 -86.5103 230° Southwest 330 380 3,900  Level Chicago Center
20:53 40.5769 -86.4589 18° North 161 185 3,900  Level Chicago Center
20:54 40.6211 -86.4708 348° North 164 189 3,900  Level Chicago Center
20:55 40.6728 -86.4853 348° North 159 183 3,900  Level Chicago Center
20:56 40.7139 -86.4942 351° North 160 184 4,000  Climbing Chicago Center
20:57 40.7567 -86.5061 348° North 159 183 3,900 -60 Descending Chicago Center
20:58 40.8094 -86.5189 350° North 160 184 3,900  Level Chicago Center
20:59 40.8519 -86.5306 348° North 160 184 4,000  Climbing Chicago Center
21:00 40.8956 -86.5422 349° North 160 184 3,900 -60 Descending Chicago Center
21:01 40.9400 -86.5528 350° North 162 186 3,900 60 Level Chicago Center
21:02 40.9853 -86.5664 347° North 155 178 4,100 60 Climbing Chicago Center
21:03 41.0292 -86.5764 350° North 159 183 4,100  Level Chicago Center
21:05 41.0731 -86.5861 351° North 159 183 4,100 -60 Level Chicago Center
21:06 41.1161 -86.5978 348° North 159 183 4,000 -60 Descending Chicago Center
21:07 41.1594 -86.6075 350° North 159 183 4,000  Level Chicago Center
21:08 41.2003 -86.6258 341° North 158 182 4,000  Level Chicago Center
21:09 41.2258 -86.6867 299° West 160 184 4,000  Level Chicago Center
21:10 41.2458 -86.7461 294° West 164 189 4,100  Climbing Chicago Center
21:11 41.2636 -86.8019 293° West 165 190 4,100 -60 Level Chicago Center
21:12 41.2825 -86.8589 294° West 167 192 4,000  Descending Chicago Center
21:13 41.3019 -86.9167 294° West 171 197 4,100  Climbing Chicago Center
21:14 41.3219 -86.9733 295° West 170 196 4,100 -60 Level Chicago Center
21:15 41.3406 -87.0311 293° West 171 197 4,000 -60 Descending Chicago Center
21:16 41.3622 -87.0997 293° West 170 196 4,000  Level Chicago Center
21:17 41.3811 -87.1586 293° West 173 199 4,100 60 Climbing Chicago Center
21:17 41.3833 -87.1833 277° West 167 192 4,100  Level Chicago TRACON
21:18 41.4000 -87.2333 294° West 169 194 4,100  Level Chicago TRACON
21:19 41.4167 -87.3000 288° West 171 197 4,100 -60 Level Chicago TRACON
21:20 41.4333 -87.3500 294° West 173 199 4,000 -60 Descending Chicago TRACON
21:21 41.4436 -87.3942 287° West 171 197 4,000  Level Chicago Center
21:22 41.4603 -87.4658 287° West 171 197 4,000  Level Chicago Center
21:23 41.4736 -87.5253 287° West 170 196 4,000  Level Chicago Center
21:24 41.4878 -87.5844 288° West 169 194 4,000  Level Chicago Center
21:25 41.5031 -87.6428 289° West 169 194 4,000  Level Chicago Center
21:26 41.5178 -87.7025 288° West 169 194 4,100  Climbing Chicago Center
21:27 41.5317 -87.7622 287° West 170 196 4,000 -360 Descending Chicago Center
21:28 41.5542 -87.8336 293° West 174 200 3,400 -540 Descending Chicago Center
21:29 41.5819 -87.8875 305° West 178 205 2,900 -240 Descending Chicago Center
21:30 41.6183 -87.9186 327° Northwest 164 189 3,000  Climbing Chicago Center
21:31 41.6581 -87.9164 North 160 184 3,000 -300 Level Chicago Center
21:32 41.6867 -87.8750 47° Northeast 153 176 2,400 -420 Descending Chicago Center
21:33 41.7167 -87.8500 32° Northeast 142 163 2,400 -360 Level Chicago TRACON
21:34 41.7333 -87.8167 56° Northeast 109 125 1,800 -540 Descending Chicago TRACON
21:35 41.7500 -87.7833 56° Northeast 103 119 1,400 -480 Descending Chicago TRACON
21:37 41.7833 -87.7500 37° Northeast  Level FlightAware Approximate